Sponsor www.jackysshop.nl


METAR rapporten vliegvelden

   
EBAW - Antwerp
Gewijzigd: 23-10-2018 20:50
Grotendeels bewolkt  
Grotendeels bewolkt  
   Wind: Westen 18.5 km/h
Wind: Westen 18.5 km/h
Temperatuur: 13°C
Dauwpunt: 8°C
Vochtigheid: 72%
Barometer: 1025 hPa
Bewolking: Grotendeels bewolkt
Zicht: meer dan 10 km
Bewolking: Grotendeels bewolkt 3300 ft
EBAW 231850Z 27010KT 240V300 9999 BKN033 13/08 Q1025 NOSIG
EBLG - Li├Ęge
Gewijzigd: 23-10-2018 20:50
Grotendeels bewolkt  
Grotendeels bewolkt  
   Wind: Westen 14.8 km/h
Wind: Westen 14.8 km/h
Temperatuur: 11°C
Dauwpunt: 7°C
Vochtigheid: 77%
Barometer: 1026 hPa
Bewolking: Grotendeels bewolkt
Zicht: meer dan 10 km
Bewolking: Grotendeels bewolkt 2300 ft
EBLG 231850Z 26008KT 9999 BKN023 11/07 Q1026 NOSIG
EBCV - Mons/Bergen
Gewijzigd: 23-10-2018 20:55
Helder  
Helder  
   Wind: Westen 11.1 km/h
Wind: Westen 11.1 km/h
Temperatuur: 11°C
Dauwpunt: 6°C
Vochtigheid: 72%
Barometer: 1028 hPa
Bewolking: Helder
Zicht: meer dan 10 km
Bewolking: Helder
EBCV 231855Z AUTO 26006KT 9999 NCD 11/06 Q1028 BLU
EHBK - Maastricht
Gewijzigd: 23-10-2018 20:55
Bewolking  
Bewolking  
   Wind: Westen 14.8 km/h
Wind: Westen 14.8 km/h
Temperatuur: 13°C
Dauwpunt: 9°C
Vochtigheid: 77%
Barometer: 1025 hPa
Bewolking: Bewolking
Zicht: meer dan 10 km
Bewolking: Licht bewolkt 1700 ft,
Bewolking 2000 ft
EHBK 231855Z AUTO 26008KT 200V300 9999 FEW017 OVC020 13/09 Q1025 NOSIG
ELLX - Luxemburg
Gewijzigd: 23-10-2018 20:50
Helder  
Helder  
   Wind: Westen 16.7 km/h
Wind: Westen 16.7 km/h
Temperatuur: 10°C
Voelt als: 8°C
Dauwpunt: 6°C
Vochtigheid: 76%
Barometer: 1026 hPa
Zicht: meer dan 10 km
Bewolking: Helder
ELLX 231850Z 28009KT CAVOK 10/06 Q1026 NOSIG
EBOS - Oostende
Gewijzigd: 23-10-2018 20:50
Helder  
Helder  
   Wind: WNW 27.8 km/h
Wind: WNW 27.8 km/h
Temperatuur: 14°C
Dauwpunt: 10°C
Vochtigheid: 77%
Barometer: 1027 hPa
Zicht: meer dan 10 km
Bewolking: Helder
EBOS 231850Z 29015KT CAVOK 14/10 Q1027 NOSIG

Script ontwikkeld door  Saratoga-weather.org Aangepast voor de template door  Weerstation Leuven